Latest METARs, TAFs and NOTAMs for TTPP


---------------------------------------------------------------------------
	(OBSERVATIONS)
TTPP 212100Z 10012KT 9999 FEW025 30/22 Q1013 NOSIG=
TTPP 212000Z 10012KT 9999 VCSH FEW025 31/22 Q1013 NOSIG RMK JP...N,
    SE=
TTPP 211900Z 10009KT 9999 FEW030 32/22 Q1013 NOSIG=
---------------------------------------------------------------------------
	(TERMINAL AREA FORECAST)
TTPP 211600Z 2118/2218 10012KT 9999 SCT025
    BECMG 2123/2201 00000KT 9999 FEW016
    BECMG 2212/2214 09011KT SCT018
    TEMPO 2215/2218 2000 TSRA FEW012CB BKN015=
---------------------------------------------------------------------------
	(NOTAMS)


TTPP A0435/21 GATE S7 ON THE SOUTH APRON TO BE USED FOR REFUELLING
    OF LIGHT ACFT ONLY. NO LONG TERM PARKING PERMITTED 24 MAR
    15:00 UNTIL 24 JUN 15:00

TTPP A0645/21 -HIBISCUS OFFSHORE PLATFORM WILL BE CONDUCTING
    DLY LASER TESTS. -LASER USE TO BE CONFINED WITH OVERALL RANGE
    OF 8200FT. -NORMAL HELICOPTER OPS TO PLATFORM PROHIBITED
    DURING LASER USE. -ALL ACFT TO REMAIN A MINIMUM OF 2.5NM
    AWAY AND/OR 12500FT ABOVE THE PLATFORM DURING LASER USE.
    SFC 12500 FT AMSL 20 APR 20:00 UNTIL 20 JUL 21:00 DLY: 2000-2100

TTPP A0821/21 GATE 12 ON THE SOUTH APRON RESTRICTED TO LIGHT
    ACFT ONLY 17 MAY 21:00 UNTIL 17 AUG 21:00

TTPP A0841/21 ALL ACFT TO BE TOWED IN AND OUT GATES 1 AND 2 SOUTH
    APRON. 20 MAY 12:20 UNTIL 20 AUG 12:20

TTPP A0908/21 LIGHT ACFT PARKING AREA CLSD 04 JUN 19:30 UNTIL
    04 JUL 21:00

TTPP A0914/21 WIP ON RWY 10/28. MEN AND EQPT OPR ON A PULLBACK
    BASIS. 07 JUN 12:00 UNTIL 30 JUN 20:00 DAILY 1200-2000

TTPP A0915/21 WIP ON TWY 'ALPHA'. MEN AND EQPT OPR ON A PULLBACK
    BASIS. 07 JUN 12:00 UNTIL 30 JUN 20:00 DAILY 1200-2000

TTPP A0929/21 WIP AT WASA CARONI TREATMENT PLANT. CRANES ERECTED
    1000M SOUTH OF THE CENTRELINE RWY 10/28 NOT MORE THAN 100FT
    IN HEIGHT AND LIGHTED. SFC 100FT AGL 10 JUN 14:30 UNTIL 10
    SEP 12:00

TTPP A0930/21 GATE 'S8' CLSD DUE MAINT. CTN ADZ. MEN AND EQPT
    IN THE AREA. 10 JUN 14:30 UNTIL 24 JUN 14:00

TTPP F0016/07 [DEFENSE ENERGY SUPPORT CENTER ADVISORY] FUEL AVAILABILITY
    NOT AVAILABLE: CONTRACTOR PLACED ON QUALITY HOLD DUE TO NONCOMPLIANCE
    OF SAMPLE SUBMISSION. 12 JUL 20:18 2020 UNTIL 01 AUG 21:18
    2020

---------------------------------------------------------------------------